Delaware — WDD4172 — position and weather

sailwx.info

Track history (hours):
 
Tides and Currents Weather Stations Pressure Air Temp Water Temp Dewpoint Dewpoint Depression Visibility Wind Speed Wind Dir Waves Ship Positions

Delaware

Owner: Overfalls Leasing LLC, Lewes, DE. More information available from US FCC via Universal Licensing System and Coast Guard Vessel Documentation Center.

Last reported at 2016-Sep-25 15:34 UTC. Time now 2016-Sep-25 15:45 UTC.
Position N 39°56' W 075°08'.

Type: Pilot. MMSI: 367141210.

Date/timePositionNaut miles runAvg speedWind from/ knotsBaromVisibWave heightAir tempDewpointWater temp
2016-Sep-25 15:34N 39°56' W 075°08'0 0.0
2016-Sep-25 14:34N 39°56' W 075°08'0 0.0
2016-Sep-25 12:34N 39°56' W 075°08'0 0.0
2016-Sep-25 11:33N 39°56' W 075°08'0 0.0
2016-Sep-25 10:33N 39°56' W 075°08'0 0.0
2016-Sep-25 09:33N 39°56' W 075°08'0 0.0
2016-Sep-25 07:33N 39°56' W 075°08'0 0.0
2016-Sep-25 04:33N 39°56' W 075°08'0 0.0
2016-Sep-25 00:33N 39°56' W 075°08'0 0.0
2016-Sep-24 22:33N 39°56' W 075°08'0 0.0
2016-Sep-24 21:33N 39°56' W 075°08'0 0.0
2016-Sep-24 19:33N 39°56' W 075°08'0 0.0
2016-Sep-24 18:33N 39°56' W 075°08'0 0.0
2016-Sep-24 17:33N 39°56' W 075°08'0 0.0
2016-Sep-24 16:33N 39°56' W 075°08'0 0.0
2016-Sep-24 14:33N 39°56' W 075°08'0 0.0
2016-Sep-24 12:33N 39°56' W 075°08'2 1.0
2016-Sep-24 10:33N 39°54' W 075°08'2 2.1
2016-Sep-24 09:33N 39°56' W 075°08'0 0.0
2016-Sep-24 03:33N 39°56' W 075°08'0 0.0
2016-Sep-24 02:33N 39°56' W 075°08'0 0.0
2016-Sep-24 01:33N 39°56' W 075°08'0 0.3
2016-Sep-24 00:33N 39°56' W 075°08'0 0.1
2016-Sep-23 19:33N 39°56' W 075°08'0 0.0
2016-Sep-23 17:33N 39°56' W 075°08'0 0.0
2016-Sep-23 16:33N 39°56' W 075°08'0 0.0
2016-Sep-23 15:33N 39°56' W 075°08'0 0.0
2016-Sep-23 13:33N 39°56' W 075°08'0 0.0
2016-Sep-23 09:33N 39°56' W 075°08'3 1.1
2016-Sep-23 06:33N 39°53' W 075°10'3 1.7
2016-Sep-23 04:34N 39°56' W 075°08'0 0.0
2016-Sep-23 03:33N 39°56' W 075°08'0 0.0
2016-Sep-23 02:33N 39°56' W 075°08'0 0.0
2016-Sep-23 01:33N 39°56' W 075°08'0 0.0
2016-Sep-23 00:34N 39°56' W 075°08'0 0.0
2016-Sep-22 23:33N 39°56' W 075°08'0 0.0
2016-Sep-22 20:34N 39°56' W 075°08'0 0.0
2016-Sep-22 12:33N 39°56' W 075°08'0 0.0
2016-Sep-22 04:33N 39°56' W 075°08'0 0.0
2016-Sep-22 03:34N 39°56' W 075°08'0 0.0
2016-Sep-22 00:31N 39°56' W 075°08'0 0.0
2016-Sep-21 23:34N 39°56' W 075°08'0 0.0
2016-Sep-21 22:34N 39°56' W 075°08'0 0.0
2016-Sep-21 19:33N 39°56' W 075°08'0 0.0
2016-Sep-21 16:33N 39°56' W 075°08'0 0.0
2016-Sep-21 09:33N 39°56' W 075°08'0 0.0
2016-Sep-21 08:33N 39°56' W 075°08'0 0.0
2016-Sep-21 05:33N 39°56' W 075°08'0 0.0
2016-Sep-21 03:33N 39°56' W 075°08'0 0.0
2016-Sep-21 02:33N 39°56' W 075°08'5 0.6
2016-Sep-20 17:33N 39°52' W 075°13'5 1.7
2016-Sep-20 14:34N 39°56' W 075°08'0 0.0
2016-Sep-20 13:34N 39°56' W 075°08'0 0.0
2016-Sep-20 10:34N 39°56' W 075°08'0 0.0
2016-Sep-20 08:33N 39°56' W 075°08'0 0.0
2016-Sep-20 07:33N 39°56' W 075°08'0 0.0
2016-Sep-20 06:33N 39°56' W 075°08'0 0.0
2016-Sep-20 02:33N 39°56' W 075°08'0 0.0
2016-Sep-19 23:33N 39°56' W 075°08'1 0.3
2016-Sep-19 19:34N 39°55' W 075°08'1 1.3
2016-Sep-19 18:33N 39°56' W 075°08'0 0.0
2016-Sep-19 16:33N 39°56' W 075°08'1 0.7
2016-Sep-19 14:34N 39°57' W 075°08'1 1.3
2016-Sep-19 13:33N 39°56' W 075°08'1 1.3
2016-Sep-19 12:34N 39°55' W 075°08'1 1.3
2016-Sep-19 11:33N 39°56' W 075°08'0 0.0
2016-Sep-19 09:33N 39°56' W 075°08'0 0.0
2016-Sep-19 07:33N 39°56' W 075°08'0 0.0
2016-Sep-19 06:33N 39°56' W 075°08'0 0.0
2016-Sep-19 03:33N 39°56' W 075°08'0 0.0
2016-Sep-19 02:33N 39°56' W 075°08'0 0.0
2016-Sep-19 00:33N 39°56' W 075°08'0 0.0
2016-Sep-18 19:34N 39°56' W 075°08'0 0.0
2016-Sep-18 15:34N 39°56' W 075°08'0 0.0
2016-Sep-18 14:34N 39°56' W 075°08'0 0.0
2016-Sep-18 10:34N 39°56' W 075°08'0 0.0
2016-Sep-18 09:34N 39°56' W 075°08'0 0.0
2016-Sep-18 02:34N 39°56' W 075°08'0 0.1
2016-Sep-18 01:34N 39°56' W 075°08'0 0.0
2016-Sep-18 00:34N 39°56' W 075°08'0 0.0
2016-Sep-17 22:34N 39°56' W 075°08'1 1.4
2016-Sep-17 21:33N 39°55' W 075°08'1 1.4
2016-Sep-17 20:33N 39°56' W 075°08'0 0.0
2016-Sep-17 19:16N 39°56' W 075°08'0 0.0
2016-Sep-17 13:33N 39°56' W 075°08'0 0.0
2016-Sep-17 12:33N 39°56' W 075°08'0 0.0
2016-Sep-17 10:33N 39°56' W 075°08'0 0.0
2016-Sep-17 09:33N 39°56' W 075°08'0 0.0
2016-Sep-17 08:33N 39°56' W 075°08'0 0.0
2016-Sep-17 07:34N 39°56' W 075°08'0 0.0
2016-Sep-17 05:33N 39°56' W 075°08'0 0.0
2016-Sep-17 04:33N 39°56' W 075°08'1 0.3
2016-Sep-17 00:33N 39°57' W 075°08'1 0.2
2016-Sep-16 17:34N 39°56' W 075°08'0 0.0
2016-Sep-16 15:33N 39°56' W 075°08'0 0.0
2016-Sep-16 12:33N 39°56' W 075°08'0 0.0
2016-Sep-16 09:33N 39°56' W 075°08'0 0.0
2016-Sep-16 07:33N 39°56' W 075°08'0 0.0
2016-Sep-16 03:33N 39°56' W 075°08'0 0.0
2016-Sep-16 02:33N 39°56' W 075°08'0 0.0
2016-Sep-16 00:33N 39°56' W 075°08'0 0.0
2016-Sep-15 22:33N 39°56' W 075°08'0 0.0
2016-Sep-15 21:33N 39°56' W 075°08'0 0.0
2016-Sep-15 20:33N 39°56' W 075°08'0 0.0
2016-Sep-15 18:33N 39°56' W 075°08'  
Track history (hours):
 
Tides and Currents Weather Stations Pressure Air Temp Water Temp Dewpoint Dewpoint Depression Visibility Wind Speed Wind Dir Waves Ship Positions

Delaware

Owner: Overfalls Leasing LLC, Lewes, DE. More information available from US FCC via Universal Licensing System and Coast Guard Vessel Documentation Center.

Last reported at 2016-Sep-25 15:34 UTC. Time now 2016-Sep-25 15:45 UTC.
Position N 39°56' W 075°08'.

Type: Pilot. MMSI: 367141210.

Date/timePositionNaut miles runAvg speedWind from/ knotsBaromVisibWave heightAir tempDewpointWater temp
2016-Sep-25 15:34N 39°56' W 075°08'0 0.0
2016-Sep-25 14:34N 39°56' W 075°08'0 0.0
2016-Sep-25 12:34N 39°56' W 075°08'0 0.0
2016-Sep-25 11:33N 39°56' W 075°08'0 0.0
2016-Sep-25 10:33N 39°56' W 075°08'0 0.0
2016-Sep-25 09:33N 39°56' W 075°08'0 0.0
2016-Sep-25 07:33N 39°56' W 075°08'0 0.0
2016-Sep-25 04:33N 39°56' W 075°08'0 0.0
2016-Sep-25 00:33N 39°56' W 075°08'0 0.0
2016-Sep-24 22:33N 39°56' W 075°08'0 0.0
2016-Sep-24 21:33N 39°56' W 075°08'0 0.0
2016-Sep-24 19:33N 39°56' W 075°08'0 0.0
2016-Sep-24 18:33N 39°56' W 075°08'0 0.0
2016-Sep-24 17:33N 39°56' W 075°08'0 0.0
2016-Sep-24 16:33N 39°56' W 075°08'0 0.0
2016-Sep-24 14:33N 39°56' W 075°08'0 0.0
2016-Sep-24 12:33N 39°56' W 075°08'2 1.0
2016-Sep-24 10:33N 39°54' W 075°08'2 2.1
2016-Sep-24 09:33N 39°56' W 075°08'0 0.0
2016-Sep-24 03:33N 39°56' W 075°08'0 0.0
2016-Sep-24 02:33N 39°56' W 075°08'0 0.0
2016-Sep-24 01:33N 39°56' W 075°08'0 0.3
2016-Sep-24 00:33N 39°56' W 075°08'0 0.1
2016-Sep-23 19:33N 39°56' W 075°08'0 0.0
2016-Sep-23 17:33N 39°56' W 075°08'0 0.0
2016-Sep-23 16:33N 39°56' W 075°08'0 0.0
2016-Sep-23 15:33N 39°56' W 075°08'0 0.0
2016-Sep-23 13:33N 39°56' W 075°08'0 0.0
2016-Sep-23 09:33N 39°56' W 075°08'3 1.1
2016-Sep-23 06:33N 39°53' W 075°10'3 1.7
2016-Sep-23 04:34N 39°56' W 075°08'0 0.0
2016-Sep-23 03:33N 39°56' W 075°08'0 0.0
2016-Sep-23 02:33N 39°56' W 075°08'0 0.0
2016-Sep-23 01:33N 39°56' W 075°08'0 0.0
2016-Sep-23 00:34N 39°56' W 075°08'0 0.0
2016-Sep-22 23:33N 39°56' W 075°08'0 0.0
2016-Sep-22 20:34N 39°56' W 075°08'0 0.0
2016-Sep-22 12:33N 39°56' W 075°08'0 0.0
2016-Sep-22 04:33N 39°56' W 075°08'0 0.0
2016-Sep-22 03:34N 39°56' W 075°08'0 0.0
2016-Sep-22 00:31N 39°56' W 075°08'0 0.0
2016-Sep-21 23:34N 39°56' W 075°08'0 0.0
2016-Sep-21 22:34N 39°56' W 075°08'0 0.0
2016-Sep-21 19:33N 39°56' W 075°08'0 0.0
2016-Sep-21 16:33N 39°56' W 075°08'0 0.0
2016-Sep-21 09:33N 39°56' W 075°08'0 0.0
2016-Sep-21 08:33N 39°56' W 075°08'0 0.0
2016-Sep-21 05:33N 39°56' W 075°08'0 0.0
2016-Sep-21 03:33N 39°56' W 075°08'0 0.0
2016-Sep-21 02:33N 39°56' W 075°08'5 0.6
2016-Sep-20 17:33N 39°52' W 075°13'5 1.7
2016-Sep-20 14:34N 39°56' W 075°08'0 0.0
2016-Sep-20 13:34N 39°56' W 075°08'0 0.0
2016-Sep-20 10:34N 39°56' W 075°08'0 0.0
2016-Sep-20 08:33N 39°56' W 075°08'0 0.0
2016-Sep-20 07:33N 39°56' W 075°08'0 0.0
2016-Sep-20 06:33N 39°56' W 075°08'0 0.0
2016-Sep-20 02:33N 39°56' W 075°08'0 0.0
2016-Sep-19 23:33N 39°56' W 075°08'1 0.3
2016-Sep-19 19:34N 39°55' W 075°08'1 1.3
2016-Sep-19 18:33N 39°56' W 075°08'0 0.0
2016-Sep-19 16:33N 39°56' W 075°08'1 0.7
2016-Sep-19 14:34N 39°57' W 075°08'1 1.3
2016-Sep-19 13:33N 39°56' W 075°08'1 1.3
2016-Sep-19 12:34N 39°55' W 075°08'1 1.3
2016-Sep-19 11:33N 39°56' W 075°08'0 0.0
2016-Sep-19 09:33N 39°56' W 075°08'0 0.0
2016-Sep-19 07:33N 39°56' W 075°08'0 0.0
2016-Sep-19 06:33N 39°56' W 075°08'0 0.0
2016-Sep-19 03:33N 39°56' W 075°08'0 0.0
2016-Sep-19 02:33N 39°56' W 075°08'0 0.0
2016-Sep-19 00:33N 39°56' W 075°08'0 0.0
2016-Sep-18 19:34N 39°56' W 075°08'0 0.0
2016-Sep-18 15:34N 39°56' W 075°08'0 0.0
2016-Sep-18 14:34N 39°56' W 075°08'0 0.0
2016-Sep-18 10:34N 39°56' W 075°08'0 0.0
2016-Sep-18 09:34N 39°56' W 075°08'0 0.0
2016-Sep-18 02:34N 39°56' W 075°08'0 0.1
2016-Sep-18 01:34N 39°56' W 075°08'0 0.0
2016-Sep-18 00:34N 39°56' W 075°08'0 0.0
2016-Sep-17 22:34N 39°56' W 075°08'1 1.4
2016-Sep-17 21:33N 39°55' W 075°08'1 1.4
2016-Sep-17 20:33N 39°56' W 075°08'0 0.0
2016-Sep-17 19:16N 39°56' W 075°08'0 0.0
2016-Sep-17 13:33N 39°56' W 075°08'0 0.0
2016-Sep-17 12:33N 39°56' W 075°08'0 0.0
2016-Sep-17 10:33N 39°56' W 075°08'0 0.0
2016-Sep-17 09:33N 39°56' W 075°08'0 0.0
2016-Sep-17 08:33N 39°56' W 075°08'0 0.0
2016-Sep-17 07:34N 39°56' W 075°08'0 0.0
2016-Sep-17 05:33N 39°56' W 075°08'0 0.0
2016-Sep-17 04:33N 39°56' W 075°08'1 0.3
2016-Sep-17 00:33N 39°57' W 075°08'1 0.2
2016-Sep-16 17:34N 39°56' W 075°08'0 0.0
2016-Sep-16 15:33N 39°56' W 075°08'0 0.0
2016-Sep-16 12:33N 39°56' W 075°08'0 0.0
2016-Sep-16 09:33N 39°56' W 075°08'0 0.0
2016-Sep-16 07:33N 39°56' W 075°08'0 0.0
2016-Sep-16 03:33N 39°56' W 075°08'0 0.0
2016-Sep-16 02:33N 39°56' W 075°08'0 0.0
2016-Sep-16 00:33N 39°56' W 075°08'0 0.0
2016-Sep-15 22:33N 39°56' W 075°08'0 0.0
2016-Sep-15 21:33N 39°56' W 075°08'0 0.0
2016-Sep-15 20:33N 39°56' W 075°08'0 0.0
2016-Sep-15 18:33N 39°56' W 075°08'  

Dump ship's entire track history